Time;durP1;ratioP1;P1;durP2;ratioP2;P2;SDS_P1;SDS_P2;PMS_P1;PMS_P2;Temp;Humidity;BMP_temperature;BMP_pressure;BME280_temperature;BME280_humidity;BME280_pressure;Samples;Min_cycle;Max_cycle;Signal;HPM_P1;HPM_P2
2023/04/12 00:02:21;;;;;;;8.40;5.03;;;;;;;8.97;nan;99872.16;5053955;28;20036;-72
2023/04/12 00:04:54;;;;;;;8.32;5.32;;;;;;;8.91;nan;99870.47;5062000;28;20039;-72
2023/04/12 00:07:23;;;;;;;8.15;5.32;;;;;;;8.86;nan;99865.06;5067905;28;20029;-72
2023/04/12 00:09:49;;;;;;;8.02;4.90;;;;;;;8.89;nan;99875.94;5071402;28;20020;-72
2023/04/12 00:12:16;;;;;;;10.65;5.70;;;;;;;8.59;nan;99849.72;5067522;28;20052;-72
2023/04/12 00:14:42;;;;;;;9.32;5.53;;;;;;;8.76;nan;99870.09;5051035;28;20040;-72
2023/04/12 00:17:07;;;;;;;9.02;5.43;;;;;;;8.63;nan;99860.59;5067770;28;20160;-72
2023/04/12 00:19:32;;;;;;;8.63;5.30;;;;;;;8.70;nan;99856.84;5065826;28;20024;-72
2023/04/12 00:21:58;;;;;;;9.95;5.93;;;;;;;8.67;nan;99848.63;5068472;28;20048;-72
2023/04/12 00:24:24;;;;;;;8.00;4.85;;;;;;;8.60;nan;99832.97;5044326;28;20031;-72
2023/04/12 00:26:49;;;;;;;9.77;5.10;;;;;;;8.64;nan;99843.81;5051148;28;20474;-72
2023/04/12 00:29:15;;;;;;;9.93;5.70;;;;;;;8.63;nan;99832.53;5059555;28;20113;-72
2023/04/12 00:31:40;;;;;;;9.05;5.22;;;;;;;8.56;nan;99833.66;5063536;28;20056;-72
2023/04/12 00:34:05;;;;;;;9.73;5.22;;;;;;;8.61;nan;99839.81;5071930;28;20028;-72
2023/04/12 00:36:31;;;;;;;8.23;5.40;;;;;;;8.64;nan;99847.25;5071552;28;20383;-72
2023/04/12 00:38:56;;;;;;;10.13;4.88;;;;;;;8.61;nan;99841.66;5064948;28;20033;-72
2023/04/12 00:41:23;;;;;;;10.75;5.82;;;;;;;8.62;nan;99848.47;5054007;28;20039;-72
2023/04/12 00:43:49;;;;;;;9.57;5.78;;;;;;;8.64;nan;99852.50;5066620;28;20127;-70
2023/04/12 00:46:16;;;;;;;9.75;5.80;;;;;;;8.57;nan;99832.63;5067425;28;20215;-72
2023/04/12 00:48:43;;;;;;;13.55;4.80;;;;;;;8.47;nan;99818.22;5061225;28;20082;-71
2023/04/12 00:51:09;;;;;;;9.48;5.10;;;;;;;8.43;nan;99818.91;5070276;28;20107;-71
2023/04/12 00:53:36;;;;;;;9.75;5.07;;;;;;;8.40;nan;99809.66;5049838;28;20553;-72
2023/04/12 00:56:03;;;;;;;8.65;5.35;;;;;;;8.45;nan;99822.09;5041553;28;20050;-72
2023/04/12 00:58:28;;;;;;;9.63;5.30;;;;;;;8.54;nan;99833.06;5043909;28;20853;-72
2023/04/12 01:00:53;;;;;;;9.93;5.97;;;;;;;8.52;nan;99823.63;5050591;28;20032;-72
2023/04/12 01:03:23;;;;;;;9.05;5.85;;;;;;;8.52;nan;99820.16;5062391;28;20021;-72
2023/04/12 01:06:15;;;;;;;8.60;5.78;;;;;;;8.65;nan;99830.47;5063457;28;20024;-72
2023/04/12 01:08:51;;;;;;;9.15;5.60;;;;;;;8.65;nan;99835.72;5046372;28;20024;-72
2023/04/12 01:11:30;;;;;;;9.05;5.70;;;;;;;8.56;nan;99831.81;5039971;28;20157;-73
2023/04/12 01:14:06;;;;;;;;;;;;;;;8.61;nan;99836.41;5064962;28;20024;-72
2023/04/12 01:16:43;;;;;;;10.77;5.75;;;;;;;8.58;nan;99835.03;5064389;28;19935;-73
2023/04/12 01:19:53;;;;;;;7.80;5.20;;;;;;;8.56;nan;99826.56;5061271;28;20033;-70
2023/04/12 01:22:44;;;;;;;8.80;4.85;;;;;;;8.50;nan;99836.16;5037798;28;20056;-72
2023/04/12 01:25:10;;;;;;;12.35;5.78;;;;;;;8.54;nan;99831.25;5061784;28;20033;-72
2023/04/12 01:27:48;;;;;;;8.23;5.37;;;;;;;8.49;nan;99826.66;5063734;28;20036;-74
2023/04/12 01:30:16;;;;;;;8.00;4.80;;;;;;;8.44;nan;99815.25;5063228;28;20284;-73
2023/04/12 01:32:44;;;;;;;9.68;5.28;;;;;;;8.36;nan;99824.22;5067146;28;20036;-72
2023/04/12 01:35:11;;;;;;;9.32;4.93;;;;;;;8.46;nan;99839.44;5049100;28;20077;-72
2023/04/12 01:37:37;;;;;;;9.25;5.00;;;;;;;8.43;nan;99838.09;5065312;28;20574;-71
2023/04/12 01:40:06;;;;;;;10.70;5.40;;;;;;;8.32;nan;99823.84;5073476;28;20095;-72
2023/04/12 01:42:32;;;;;;;;;;;;;;;8.43;nan;99829.41;5064266;28;20414;-71
2023/04/12 01:44:57;;;;;;;9.82;4.90;;;;;;;8.39;nan;99833.47;5064596;28;19912;-72
2023/04/12 01:47:23;;;;;;;7.90;4.80;;;;;;;8.42;nan;99835.66;5062455;28;20029;-73
2023/04/12 01:50:02;;;;;;;7.65;4.80;;;;;;;8.42;nan;99833.84;5044314;28;20102;-73
2023/04/12 01:52:31;;;;;;;10.82;5.95;;;;;;;8.23;nan;99811.28;5063586;28;20039;-73
2023/04/12 01:55:00;;;;;;;7.00;5.00;;;;;;;8.29;nan;99823.53;5051775;28;20074;-73
2023/04/12 01:57:26;;;;;;;8.60;4.90;;;;;;;8.33;nan;99819.41;5065812;28;20024;-73
2023/04/12 01:59:54;;;;;;;9.50;5.50;;;;;;;8.28;nan;99814.88;5066752;28;20093;-73
2023/04/12 02:02:20;;;;;;;8.95;4.82;;;;;;;8.28;nan;99817.47;5052551;28;20039;-72
2023/04/12 02:04:46;;;;;;;8.45;5.15;;;;;;;8.26;nan;99830.00;5038879;28;20021;-73
2023/04/12 02:07:13;;;;;;;9.52;5.20;;;;;;;8.23;nan;99824.41;5061586;28;20045;-73
2023/04/12 02:09:38;;;;;;;8.18;5.03;;;;;;;8.22;nan;99828.84;5063804;28;20083;-73
2023/04/12 02:12:08;;;;;;;11.30;5.32;;;;;;;8.09;nan;99819.34;5062670;28;20040;-73
2023/04/12 02:14:33;;;;;;;10.80;5.45;;;;;;;7.88;nan;99778.69;5054114;28;20023;-73
2023/04/12 02:17:01;;;;;;;10.40;5.07;;;;;;;8.04;nan;99827.06;5055582;28;20470;-71
2023/04/12 02:19:26;;;;;;;9.88;5.78;;;;;;;7.99;nan;99826.13;5061560;28;20035;-73
2023/04/12 02:21:52;;;;;;;9.27;5.57;;;;;;;7.91;nan;99815.97;5062009;28;20024;-73
2023/04/12 02:24:17;;;;;;;8.05;5.22;;;;;;;7.97;nan;99828.19;5056382;28;20028;-73
2023/04/12 02:26:43;;;;;;;8.88;5.32;;;;;;;7.78;nan;99815.13;5059594;28;20035;-73
2023/04/12 02:29:09;;;;;;;8.68;5.40;;;;;;;7.80;nan;99841.09;5057494;28;20127;-73
2023/04/12 02:31:35;;;;;;;9.63;5.38;;;;;;;7.60;nan;99823.78;5058721;28;20367;-73
2023/04/12 02:34:01;;;;;;;10.15;6.30;;;;;;;7.67;nan;99829.75;5057727;28;20458;-73
2023/04/12 02:36:27;;;;;;;12.90;5.82;;;;;;;7.77;nan;99844.16;5057971;28;20063;-73
2023/04/12 02:38:53;;;;;;;11.57;5.53;;;;;;;7.67;nan;99821.09;5062699;28;20478;-73
2023/04/12 02:41:19;;;;;;;9.63;5.65;;;;;;;7.80;nan;99836.66;5046379;28;20079;-73
2023/04/12 02:43:45;;;;;;;11.05;6.15;;;;;;;7.72;nan;99834.34;5057525;28;20052;-73
2023/04/12 02:46:18;;;;;;;10.27;6.20;;;;;;;7.76;nan;99838.13;5043043;28;20040;-73
2023/04/12 02:48:46;;;;;;;13.48;5.97;;;;;;;7.50;nan;99827.94;5062541;28;20476;-73
2023/04/12 02:51:12;;;;;;;13.00;6.00;;;;;;;7.40;nan;99831.88;5066408;28;20064;-73
2023/04/12 02:53:37;;;;;;;10.18;5.82;;;;;;;7.34;nan;99818.84;5062865;28;20121;-73
2023/04/12 02:56:04;;;;;;;10.10;5.55;;;;;;;7.15;nan;99831.13;5064296;28;20044;-73
2023/04/12 02:58:30;;;;;;;9.63;5.47;;;;;;;6.97;nan;99806.50;5048400;28;20033;-73
2023/04/12 03:00:56;;;;;;;7.93;4.72;;;;;;;6.89;nan;99806.78;5046039;28;20027;-73
2023/04/12 03:03:22;;;;;;;8.98;5.25;;;;;;;6.88;nan;99807.81;5061682;28;20021;-72
2023/04/12 03:05:48;;;;;;;9.32;5.38;;;;;;;6.81;nan;99807.84;5061032;28;20032;-73
2023/04/12 03:08:14;;;;;;;8.13;4.95;;;;;;;6.84;nan;99814.47;5062492;28;20042;-73
2023/04/12 03:10:39;;;;;;;9.88;5.22;;;;;;;6.78;nan;99810.91;5056050;28;20025;-73
2023/04/12 03:13:04;;;;;;;10.35;5.10;;;;;;;6.73;nan;99831.69;5057367;28;20028;-73
2023/04/12 03:15:30;;;;;;;9.18;5.05;;;;;;;6.67;nan;99819.44;5047095;28;20031;-73
2023/04/12 03:17:56;;;;;;;7.15;4.72;;;;;;;6.76;nan;99836.47;5063013;28;20041;-72
2023/04/12 03:20:23;;;;;;;10.25;5.13;;;;;;;6.71;nan;99830.28;5050478;28;20455;-73
2023/04/12 03:22:49;;;;;;;10.70;4.90;;;;;;;6.54;nan;99828.19;5050710;28;20093;-73
2023/04/12 03:25:16;;;;;;;11.27;5.07;;;;;;;6.55;nan;99803.63;5045866;28;20021;-71
2023/04/12 03:27:42;;;;;;;7.35;4.55;;;;;;;6.45;nan;99826.06;5041794;28;20553;-72
2023/04/12 03:30:10;;;;;;;9.20;5.00;;;;;;;6.38;nan;99819.03;5059897;28;20032;-72
2023/04/12 03:32:35;;;;;;;10.45;5.18;;;;;;;6.45;nan;99834.69;5061116;28;20380;-73
2023/04/12 03:35:02;;;;;;;10.65;5.15;;;;;;;6.50;nan;99837.47;5041660;28;20024;-73
2023/04/12 03:37:27;;;;;;;9.35;5.13;;;;;;;6.62;nan;99852.50;5054404;28;20029;-73
2023/04/12 03:39:53;;;;;;;10.73;5.28;;;;;;;6.50;nan;99824.41;5047161;28;20025;-73
2023/04/12 03:42:18;;;;;;;8.60;5.25;;;;;;;6.52;nan;99839.88;5060073;28;20530;-72
2023/04/12 03:44:43;;;;;;;10.02;5.82;;;;;;;6.60;nan;99840.41;5062832;28;20035;-73
2023/04/12 03:47:10;;;;;;;10.95;4.90;;;;;;;6.58;nan;99839.84;5061262;28;20111;-73
2023/04/12 03:49:37;;;;;;;9.93;5.13;;;;;;;6.52;nan;99834.66;5056581;28;20037;-72
2023/04/12 03:52:04;;;;;;;10.25;5.07;;;;;;;6.39;nan;99818.03;5063521;28;20031;-73
2023/04/12 03:54:29;;;;;;;8.45;4.65;;;;;;;6.34;nan;99830.94;5064090;28;20394;-73
2023/04/12 03:56:55;;;;;;;8.27;4.78;;;;;;;6.40;nan;99839.75;5051088;28;20049;-73
2023/04/12 03:59:21;;;;;;;13.35;5.50;;;;;;;6.41;nan;99843.16;5059142;28;20052;-72
2023/04/12 04:01:46;;;;;;;10.70;4.78;;;;;;;6.28;nan;99826.56;5057191;28;20125;-72
2023/04/12 04:04:12;;;;;;;11.48;4.68;;;;;;;6.26;nan;99825.97;5039778;28;20595;-72
2023/04/12 04:06:38;;;;;;;10.65;5.05;;;;;;;6.29;nan;99836.00;5058045;28;20023;-72
2023/04/12 04:09:04;;;;;;;8.57;4.72;;;;;;;6.33;nan;99849.47;5040312;28;20037;-73
2023/04/12 04:11:30;;;;;;;9.23;4.20;;;;;;;6.27;nan;99845.06;5061977;28;20032;-74
2023/04/12 04:13:56;;;;;;;7.47;4.38;;;;;;;6.11;nan;99823.63;5047184;28;20016;-74
2023/04/12 04:16:22;;;;;;;8.27;4.75;;;;;;;6.33;nan;99854.69;5062998;28;20039;-74
2023/04/12 04:18:47;;;;;;;9.85;4.85;;;;;;;6.33;nan;99852.06;5060888;28;20032;-73
2023/04/12 04:21:13;;;;;;;10.80;5.05;;;;;;;6.23;nan;99847.31;5061589;28;20028;-74
2023/04/12 04:23:39;;;;;;;8.00;4.45;;;;;;;6.18;nan;99837.47;5055334;28;20036;-74
2023/04/12 04:26:10;;;;;;;17.05;7.32;;;;;;;6.26;nan;99844.25;5057547;28;20138;-73
2023/04/12 04:28:46;;;;;;;16.52;7.38;;;;;;;6.31;nan;99854.09;5055529;28;20024;-73
2023/04/12 04:31:12;;;;;;;11.07;5.85;;;;;;;6.18;nan;99829.63;5058564;28;20029;-73
2023/04/12 04:33:38;;;;;;;9.85;4.55;;;;;;;6.18;nan;99827.00;5061277;28;20029;-74
2023/04/12 04:36:06;;;;;;;12.98;5.32;;;;;;;6.18;nan;99834.84;5061450;28;20032;-74
2023/04/12 04:38:32;;;;;;;8.05;4.25;;;;;;;6.23;nan;99834.22;5060343;28;20037;-73
2023/04/12 04:41:01;;;;;;;7.47;3.90;;;;;;;6.23;nan;99843.91;5074064;28;20474;-78
2023/04/12 04:43:29;;;;;;;8.03;3.80;;;;;;;6.27;nan;99830.16;5064372;28;20036;-76
2023/04/12 04:45:55;;;;;;;7.30;4.03;;;;;;;6.11;nan;99807.94;5058076;28;20029;-78
2023/04/12 04:48:21;;;;;;;7.75;4.50;;;;;;;5.93;nan;99782.47;5060016;28;20465;-78
2023/04/12 04:50:47;;;;;;;6.57;4.07;;;;;;;6.18;nan;99827.00;5044181;28;20033;-80
2023/04/12 04:53:13;;;;;;;9.13;5.70;;;;;;;6.28;nan;99841.44;5069151;28;20043;-80
2023/04/12 04:55:38;;;;;;;7.13;4.22;;;;;;;6.06;nan;99813.00;5065647;28;20040;-77
2023/04/12 04:58:06;;;;;;;7.40;4.40;;;;;;;6.02;nan;99777.03;5040816;28;20025;-80
2023/04/12 05:00:34;;;;;;;7.68;4.57;;;;;;;6.19;nan;99804.28;5062634;28;20040;-78
2023/04/12 05:03:00;;;;;;;7.13;4.13;;;;;;;6.42;nan;99834.28;5071171;28;20537;-76
2023/04/12 05:05:25;;;;;;;9.05;4.00;;;;;;;6.47;nan;99821.41;5053528;28;20035;-78
2023/04/12 05:07:50;;;;;;;9.05;3.70;;;;;;;6.54;nan;99832.63;5058336;28;20025;-76
2023/04/12 05:10:16;;;;;;;7.18;3.83;;;;;;;6.60;nan;99834.38;5062350;28;20031;-75
2023/04/12 05:12:41;;;;;;;7.75;2.95;;;;;;;6.50;nan;99829.63;5069808;28;20024;-75
2023/04/12 05:15:07;;;;;;;5.68;3.20;;;;;;;6.57;nan;99843.47;5044750;28;20704;-74
2023/04/12 05:17:33;;;;;;;5.22;2.80;;;;;;;6.56;nan;99841.03;5060742;28;20122;-74
2023/04/12 05:19:59;;;;;;;7.35;3.65;;;;;;;6.28;nan;99799.59;5061205;28;20147;-73
2023/04/12 05:22:25;;;;;;;9.65;4.00;;;;;;;6.45;nan;99819.00;5060165;28;20144;-73
2023/04/12 05:24:50;;;;;;;8.98;3.40;;;;;;;6.47;nan;99834.50;5057569;28;20050;-73
2023/04/12 05:27:17;;;;;;;6.47;3.50;;;;;;;6.39;nan;99830.28;5062111;28;21004;-73
2023/04/12 05:29:43;;;;;;;6.07;3.50;;;;;;;6.54;nan;99840.47;5063380;28;20043;-70
2023/04/12 05:32:09;;;;;;;6.55;3.50;;;;;;;6.49;nan;99835.88;5057452;28;20028;-73
2023/04/12 05:34:34;;;;;;;6.65;3.30;;;;;;;6.44;nan;99847.97;5061861;28;20031;-74
2023/04/12 05:37:00;;;;;;;6.40;3.53;;;;;;;6.46;nan;99851.97;5061744;28;20627;-73
2023/04/12 05:39:26;;;;;;;6.65;3.85;;;;;;;6.36;nan;99822.88;5055647;28;20028;-73
2023/04/12 05:41:52;;;;;;;8.25;4.05;;;;;;;6.32;nan;99843.44;5053876;28;20728;-73
2023/04/12 05:44:17;;;;;;;7.95;3.65;;;;;;;6.34;nan;99825.69;5064813;28;20040;-73
2023/04/12 05:46:43;;;;;;;5.78;3.75;;;;;;;6.29;nan;99830.75;5047846;28;20162;-73
2023/04/12 05:49:08;;;;;;;7.70;3.95;;;;;;;6.27;nan;99824.13;5057316;28;20025;-73
2023/04/12 05:51:34;;;;;;;8.23;4.20;;;;;;;6.31;nan;99827.94;5056213;28;20024;-73
2023/04/12 05:54:00;;;;;;;7.72;3.90;;;;;;;6.34;nan;99830.13;5060928;28;20027;-73
2023/04/12 05:56:26;;;;;;;6.25;3.75;;;;;;;6.32;nan;99825.13;5062855;28;20407;-73
2023/04/12 05:58:51;;;;;;;7.68;4.25;;;;;;;6.38;nan;99826.88;5068745;28;20032;-73
2023/04/12 06:01:18;;;;;;;7.63;4.30;;;;;;;6.39;nan;99830.28;5064615;28;20020;-73
2023/04/12 06:03:44;;;;;;;7.20;4.38;;;;;;;6.39;nan;99831.13;5065428;28;20490;-73
2023/04/12 06:06:10;;;;;;;13.70;4.20;;;;;;;6.42;nan;99840.34;5064940;28;20495;-72
2023/04/12 06:08:36;;;;;;;8.63;4.78;;;;;;;6.33;nan;99825.94;5050039;28;20028;-73
2023/04/12 06:11:03;;;;;;;9.52;5.00;;;;;;;6.26;nan;99823.34;5065811;28;20742;-72
2023/04/12 06:13:29;;;;;;;9.32;4.40;;;;;;;6.42;nan;99842.16;5052018;28;20119;-74
2023/04/12 06:15:54;;;;;;;12.23;4.85;;;;;;;6.36;nan;99831.53;5058540;28;20116;-73
2023/04/12 06:18:19;;;;;;;10.80;5.28;;;;;;;6.37;nan;99824.50;5059319;28;20135;-73
2023/04/12 06:20:45;;;;;;;11.48;5.07;;;;;;;6.44;nan;99825.25;5065386;28;20035;-73
2023/04/12 06:23:10;;;;;;;11.00;5.90;;;;;;;6.52;nan;99834.66;5062439;28;20067;-72
2023/04/12 06:25:36;;;;;;;10.63;5.28;;;;;;;6.52;nan;99834.66;5067843;28;20028;-72
2023/04/12 06:28:01;;;;;;;9.02;4.45;;;;;;;6.44;nan;99827.88;5064738;28;20020;-73
2023/04/12 06:30:27;;;;;;;9.98;4.50;;;;;;;6.25;nan;99794.78;5054827;28;20034;-72
2023/04/12 06:32:52;;;;;;;10.80;4.97;;;;;;;6.66;nan;99851.84;5069925;28;20107;-72
2023/04/12 06:35:19;;;;;;;11.38;4.90;;;;;;;6.68;nan;99836.75;5056851;28;20037;-73
2023/04/12 06:37:44;;;;;;;9.32;4.30;;;;;;;6.76;nan;99840.91;5043912;28;20398;-73
2023/04/12 06:40:11;;;;;;;9.05;4.90;;;;;;;6.71;nan;99836.31;5059652;28;20029;-71
2023/04/12 06:42:36;;;;;;;9.07;5.57;;;;;;;6.77;nan;99855.59;5059658;28;20028;-72
2023/04/12 06:45:02;;;;;;;9.43;5.43;;;;;;;6.82;nan;99855.75;5063615;28;20035;-73
2023/04/12 06:47:28;;;;;;;7.97;4.65;;;;;;;6.85;nan;99865.00;5053030;28;20060;-72
2023/04/12 06:49:56;;;;;;;14.23;5.15;;;;;;;6.90;nan;99855.50;5067283;28;20036;-72
2023/04/12 06:52:25;;;;;;;10.70;5.20;;;;;;;6.94;nan;99866.31;5069883;28;20032;-72
2023/04/12 06:54:51;;;;;;;10.17;4.97;;;;;;;7.04;nan;99869.28;5054607;28;20063;-71
2023/04/12 06:57:16;;;;;;;9.48;5.60;;;;;;;7.09;nan;99868.63;5056446;28;20060;-72
2023/04/12 06:59:41;;;;;;;9.68;5.13;;;;;;;;;;5066054;28;20028;-72
2023/04/12 07:02:07;;;;;;;9.87;5.80;;;;;;;;;;5046749;28;20029;-72
2023/04/12 07:04:32;;;;;;;12.43;6.07;;;;;;;;;;5064982;28;20040;-72
2023/04/12 07:06:57;;;;;;;9.27;5.25;;;;;;;;;;5065857;28;20043;-73
2023/04/12 07:09:23;;;;;;;10.65;4.60;;;;;;;;;;5044570;28;20033;-72
2023/04/12 07:11:48;;;;;;;10.18;5.43;;;;;;;;;;5047843;28;20057;-73
2023/04/12 07:14:13;;;;;;;7.95;5.15;;;;;;;;;;5051001;28;20052;-73
2023/04/12 07:16:39;;;;;;;7.77;5.20;;;;;;;;;;5065107;28;20036;-73
2023/04/12 07:19:04;;;;;;;8.27;5.00;;;;;;;;;;5069350;28;20379;-73
2023/04/12 07:21:29;;;;;;;7.93;4.93;;;;;;;8.22;nan;99922.47;5066566;28;20020;-72
2023/04/12 07:23:55;;;;;;;7.85;5.45;;;;;;;7.98;nan;99869.13;5064882;28;20280;-72
2023/04/12 07:26:20;;;;;;;7.13;5.22;;;;;;;7.99;nan;99854.97;5061707;28;20027;-70
2023/04/12 07:28:46;;;;;;;10.25;4.93;;;;;;;8.16;nan;99860.41;5046418;28;20040;-70
2023/04/12 07:31:11;;;;;;;7.95;4.93;;;;;;;8.34;nan;99870.06;5061778;28;20053;-69
2023/04/12 07:33:37;;;;;;;7.68;4.97;;;;;;;8.46;nan;99865.69;5063998;28;20074;-70
2023/04/12 07:36:03;;;;;;;9.48;5.68;;;;;;;8.52;nan;99857.72;5045023;28;20031;-70
2023/04/12 07:38:29;;;;;;;6.25;3.88;;;;;;;8.65;nan;99864.59;5048977;28;20032;-71
2023/04/12 07:40:55;;;;;;;9.90;3.95;;;;;;;8.84;nan;99875.03;5039463;28;20032;-69
2023/04/12 07:43:22;;;;;;;7.90;3.13;;;;;;;8.85;nan;99876.63;5062681;28;20024;-72
2023/04/12 07:45:48;;;;;;;6.88;4.10;;;;;;;8.88;nan;99874.34;5061893;28;20500;-71
2023/04/12 07:48:14;;;;;;;7.40;3.80;;;;;;;8.94;nan;99881.31;5066316;28;20202;-72
2023/04/12 07:50:40;;;;;;;6.55;3.55;;;;;;;8.89;nan;99877.78;5063150;28;20043;-72
2023/04/12 07:53:27;;;;;;;10.57;3.70;;;;;;;8.81;nan;99875.47;5058374;28;20032;-70
2023/04/12 07:55:54;;;;;;;6.85;3.40;;;;;;;8.85;nan;99877.41;5047307;28;20578;-72
2023/04/12 07:58:21;;;;;;;8.93;3.40;;;;;;;8.89;nan;99873.31;5045101;28;20131;-72
2023/04/12 08:00:47;;;;;;;9.40;3.28;;;;;;;8.93;nan;99871.03;5060075;28;20123;-71
2023/04/12 08:03:14;;;;;;;10.57;4.10;;;;;;;8.94;nan;99857.66;5042960;28;20119;-71
2023/04/12 08:05:40;;;;;;;7.47;3.85;;;;;;;9.08;nan;99878.47;5057416;28;20035;-71
2023/04/12 08:08:06;;;;;;;8.85;3.40;;;;;;;9.02;nan;99874.13;5042862;28;20016;-71
2023/04/12 08:10:31;;;;;;;4.85;3.38;;;;;;;9.11;nan;99884.06;5051714;28;20156;-70
2023/04/12 08:12:57;;;;;;;6.05;3.75;;;;;;;9.11;nan;99888.53;5070578;28;20525;-71
2023/04/12 08:15:23;;;;;;;6.28;3.30;;;;;;;9.02;nan;99887.25;5069150;28;20030;-72
2023/04/12 08:17:48;;;;;;;4.80;3.30;;;;;;;8.86;nan;99884.28;5065657;28;20030;-71
2023/04/12 08:20:14;;;;;;;6.55;3.25;;;;;;;8.92;nan;99893.06;5062327;28;20456;-71
2023/04/12 08:22:41;;;;;;;8.73;3.42;;;;;;;8.94;nan;99885.75;5065162;28;20689;-71
2023/04/12 08:25:07;;;;;;;6.05;3.42;;;;;;;9.05;nan;99892.03;5068746;28;20662;-70
2023/04/12 08:27:33;;;;;;;6.72;3.40;;;;;;;9.07;nan;99880.28;5067940;28;20038;-71
2023/04/12 08:29:58;;;;;;;5.55;3.33;;;;;;;9.14;nan;99901.97;5050217;28;20111;-70
2023/04/12 08:32:24;;;;;;;4.80;3.30;;;;;;;9.25;nan;99894.34;5062220;28;20029;-71
2023/04/12 08:34:49;;;;;;;4.70;2.75;;;;;;;9.28;nan;99892.06;5065685;28;20029;-72
2023/04/12 08:37:15;;;;;;;4.05;3.13;;;;;;;9.25;nan;99884.63;5072216;28;20028;-71
2023/04/12 08:39:41;;;;;;;4.53;2.80;;;;;;;9.39;nan;99906.25;5051613;28;20042;-72
2023/04/12 08:42:06;;;;;;;5.35;2.95;;;;;;;9.39;nan;99894.94;5062620;28;20474;-71
2023/04/12 08:44:38;;;;;;;5.65;3.03;;;;;;;9.46;nan;99904.28;5047628;28;20040;-72
2023/04/12 08:47:05;;;;;;;8.45;3.38;;;;;;;9.30;nan;99873.44;5052516;28;20062;-72
2023/04/12 08:49:32;;;;;;;9.20;2.72;;;;;;;9.57;nan;99906.09;5064453;28;20020;-72
2023/04/12 08:52:09;;;;;;;12.77;3.55;;;;;;;9.55;nan;99899.47;5066315;28;20577;-72
2023/04/12 08:54:34;;;;;;;6.45;2.78;;;;;;;9.57;nan;99900.84;5066526;28;20020;-70
2023/04/12 08:57:05;;;;;;;4.22;2.63;;;;;;;9.59;nan;99895.34;5058165;28;20052;-71
2023/04/12 08:59:35;;;;;;;4.40;3.22;;;;;;;9.67;nan;99902.09;5043547;28;20108;-72
2023/04/12 09:02:01;;;;;;;8.02;3.22;;;;;;;9.75;nan;99901.75;5062334;28;20087;-71
2023/04/12 09:04:26;;;;;;;13.48;3.00;;;;;;;9.72;nan;99881.16;5049554;28;20098;-70
2023/04/12 09:06:52;;;;;;;6.35;2.97;;;;;;;9.88;nan;99890.97;5049950;28;20059;-67
2023/04/12 09:09:17;;;;;;;3.88;2.55;;;;;;;9.93;nan;99892.91;5053439;28;20028;-70
2023/04/12 09:11:43;;;;;;;4.47;2.50;;;;;;;9.84;nan;99905.63;5074587;28;20060;-70
2023/04/12 09:14:23;;;;;;;6.60;2.72;;;;;;;9.89;nan;99902.28;5051204;28;20451;-71
2023/04/12 09:16:49;;;;;;;5.70;2.20;;;;;;;9.85;nan;99896.69;5064602;28;20016;-70
2023/04/12 09:19:15;;;;;;;3.83;2.45;;;;;;;9.84;nan;99903.00;5046841;28;20069;-71
2023/04/12 09:21:55;;;;;;;5.13;2.78;;;;;;;9.83;nan;99901.38;5064019;28;20108;-70
2023/04/12 09:24:23;;;;;;;9.68;2.75;;;;;;;9.82;nan;99897.16;5046286;28;20443;-68
2023/04/12 09:27:09;;;;;;;6.13;3.20;;;;;;;9.80;nan;99894.75;5046044;28;20106;-73
2023/04/12 09:29:35;;;;;;;4.45;2.88;;;;;;;9.89;nan;99897.84;5048395;28;20103;-73
2023/04/12 09:32:05;;;;;;;4.00;2.58;;;;;;;9.96;nan;99910.81;5070383;28;20829;-73
2023/04/12 09:34:32;;;;;;;4.18;2.55;;;;;;;10.02;nan;99908.06;5068705;28;20023;-72
2023/04/12 09:36:58;;;;;;;7.38;2.97;;;;;;;9.75;nan;99875.47;5050425;28;20058;-73
2023/04/12 09:39:31;;;;;;;9.00;2.92;;;;;;;9.96;nan;99898.50;5069586;28;20671;-73
2023/04/12 09:42:10;;;;;;;5.82;2.90;;;;;;;9.98;nan;99896.44;5064666;28;20044;-73
2023/04/12 09:44:37;;;;;;;6.28;2.47;;;;;;;10.06;nan;99897.91;5059173;28;20024;-73
2023/04/12 09:47:05;;;;;;;5.00;2.65;;;;;;;10.03;nan;99898.34;5061102;28;20040;-73
2023/04/12 09:49:42;;;;;;;7.07;2.72;;;;;;;9.99;nan;99899.88;5049098;28;20035;-73
2023/04/12 09:52:09;;;;;;;9.10;2.97;;;;;;;9.93;nan;99903.41;5058544;28;20028;-73
2023/04/12 09:54:46;;;;;;;6.15;3.10;;;;;;;9.89;nan;99892.56;5050746;28;20029;-73
2023/04/12 09:57:12;;;;;;;12.48;2.95;;;;;;;9.87;nan;99889.38;5062339;28;20751;-73
2023/04/12 09:59:40;;;;;;;4.90;2.78;;;;;;;9.87;nan;99884.13;5063890;28;20064;-73
2023/04/12 10:02:17;;;;;;;5.57;2.67;;;;;;;10.00;nan;99899.63;5050125;28;20021;-73
2023/04/12 10:04:43;;;;;;;4.82;2.80;;;;;;;10.01;nan;99895.97;5046454;28;20598;-73
2023/04/12 10:07:09;;;;;;;6.15;2.83;;;;;;;10.04;nan;99891.28;5065672;28;20021;-73
2023/04/12 10:09:39;;;;;;;5.78;2.65;;;;;;;10.12;nan;99901.41;5039601;28;20020;-73
2023/04/12 10:12:05;;;;;;;;;;;;;;;10.13;nan;99910.94;5048134;28;20024;-73
2023/04/12 10:14:30;;;;;;;6.03;3.05;;;;;;;10.14;nan;99902.78;5068322;28;19912;-73
2023/04/12 10:16:58;;;;;;;4.53;2.92;;;;;;;10.16;nan;99900.72;5053752;28;20037;-73
2023/04/12 10:19:30;;;;;;;3.85;2.75;;;;;;;10.19;nan;99894.97;5048745;28;20445;-73
2023/04/12 10:21:57;;;;;;;5.20;2.97;;;;;;;10.13;nan;99893.31;5060112;28;20503;-73
2023/04/12 10:24:24;;;;;;;4.70;2.35;;;;;;;10.02;nan;99859.94;5060788;28;20039;-73
2023/04/12 10:26:54;;;;;;;5.38;2.70;;;;;;;10.25;nan;99895.06;5045753;28;20802;-73
2023/04/12 10:29:28;;;;;;;4.80;2.88;;;;;;;10.29;nan;99886.50;5043960;28;20459;-73
2023/04/12 10:31:58;;;;;;;3.47;2.30;;;;;;;10.35;nan;99893.47;5062739;28;20028;-74
2023/04/12 10:34:30;;;;;;;6.43;3.13;;;;;;;10.42;nan;99894.13;5048991;28;20104;-74
2023/04/12 10:36:59;;;;;;;3.33;2.15;;;;;;;10.47;nan;99895.25;5062346;28;20024;-73
2023/04/12 10:39:39;;;;;;;2.85;2.03;;;;;;;10.47;nan;99880.25;5061558;28;20556;-73
2023/04/12 10:42:18;;;;;;;4.07;2.50;;;;;;;10.58;nan;99883.84;5059425;28;20497;-74
2023/04/12 10:44:44;;;;;;;4.43;2.70;;;;;;;10.53;nan;99871.41;5042118;28;20055;-74
2023/04/12 10:47:13;;;;;;;5.47;2.83;;;;;;;10.69;nan;99875.09;5050417;28;20030;-73
2023/04/12 10:49:39;;;;;;;11.73;6.38;;;;;;;10.80;nan;99884.78;5067357;28;20024;-74
2023/04/12 10:52:04;;;;;;;5.93;3.60;;;;;;;10.86;nan;99880.38;5068146;28;20039;-73
2023/04/12 10:54:31;;;;;;;6.68;3.38;;;;;;;10.88;nan;99870.41;5064107;28;20105;-73
2023/04/12 10:56:56;;;;;;;9.52;3.88;;;;;;;10.89;nan;99866.72;5065332;28;20052;-74
2023/04/12 10:59:22;;;;;;;5.15;3.20;;;;;;;11.01;nan;99880.63;5070165;28;20027;-73
2023/04/12 11:02:03;;;;;;;4.43;3.10;;;;;;;11.10;nan;99881.00;5068230;28;20048;-72
2023/04/12 11:04:29;;;;;;;5.28;3.08;;;;;;;11.14;nan;99887.41;5038422;28;20104;-73
2023/04/12 11:06:58;;;;;;;5.00;2.60;;;;;;;11.08;nan;99888.34;5059985;28;20123;-73
2023/04/12 11:09:32;;;;;;;5.68;2.80;;;;;;;11.06;nan;99885.97;5060369;28;20028;-73
2023/04/12 11:12:12;;;;;;;4.45;2.03;;;;;;;11.01;nan;99871.91;5064907;28;20021;-73
2023/04/12 11:14:50;;;;;;;;;;;;;;;10.79;nan;99845.50;5047113;28;20058;-73
2023/04/12 11:17:16;;;;;;;2.80;2.17;;;;;;;11.07;nan;99884.13;5044500;28;19920;-73
2023/04/12 11:19:43;;;;;;;7.10;3.22;;;;;;;11.15;nan;99880.28;5059978;28;20021;-73
2023/04/12 11:22:13;;;;;;;4.18;2.80;;;;;;;11.11;nan;99858.09;5060250;28;20029;-73
2023/04/12 11:24:42;;;;;;;5.90;2.53;;;;;;;11.25;nan;99877.78;5061686;28;20032;-73
2023/04/12 11:27:07;;;;;;;3.90;2.50;;;;;;;11.28;nan;99878.13;5052929;28;20036;-73
2023/04/12 11:29:33;;;;;;;2.85;1.90;;;;;;;11.15;nan;99862.63;5067815;28;20421;-73
2023/04/12 11:32:02;;;;;;;4.30;2.90;;;;;;;11.21;nan;99882.75;5052029;28;20039;-74
2023/04/12 11:34:31;;;;;;;6.45;3.08;;;;;;;11.22;nan;99865.09;5056509;28;20060;-73
2023/04/12 11:36:57;;;;;;;4.68;2.13;;;;;;;11.27;nan;99881.78;5058479;28;20063;-71
2023/04/12 11:39:25;;;;;;;7.10;2.38;;;;;;;11.27;nan;99886.25;5043530;28;20024;-71
2023/04/12 11:41:51;;;;;;;5.10;2.10;;;;;;;11.19;nan;99886.69;5041206;28;20028;-70
2023/04/12 11:44:20;;;;;;;5.70;2.00;;;;;;;11.09;nan;99881.25;5048209;28;20108;-71
2023/04/12 11:46:47;;;;;;;5.75;1.80;;;;;;;11.13;nan;99898.97;5045720;28;20042;-71
2023/04/12 11:49:20;;;;;;;4.10;1.95;;;;;;;11.10;nan;99885.47;5063378;28;20096;-71
2023/04/12 11:51:46;;;;;;;3.60;2.38;;;;;;;11.15;nan;99891.63;5055446;28;20040;-71
2023/04/12 11:54:12;;;;;;;5.80;2.65;;;;;;;11.19;nan;99899.84;5063731;28;20461;-71
2023/04/12 11:56:38;;;;;;;6.18;2.90;;;;;;;11.22;nan;99880.91;5043550;28;20410;-71
2023/04/12 11:59:04;;;;;;;4.78;2.70;;;;;;;11.33;nan;99885.31;5052967;28;20078;-71
2023/04/12 12:01:33;;;;;;;8.77;2.72;;;;;;;11.32;nan;99882.91;5064834;28;20102;-71
2023/04/12 12:03:58;;;;;;;4.43;2.50;;;;;;;11.29;nan;99886.81;5059900;28;20111;-71